createdAt,value
2022-11-03T00:01:46.835Z,94325.22
2022-11-03T00:04:15.630Z,94313.94
2022-11-03T00:06:43.929Z,94322.78
2022-11-03T00:09:12.380Z,94316.94
2022-11-03T00:11:41.684Z,94310.88
2022-11-03T00:14:11.668Z,94313.16
2022-11-03T00:16:39.522Z,94312.66
2022-11-03T00:19:07.636Z,94308.09
2022-11-03T00:21:34.335Z,94309.19
2022-11-03T00:24:04.120Z,94302.09
2022-11-03T00:26:33.124Z,94291.69
2022-11-03T00:29:02.143Z,94279.78
2022-11-03T00:31:32.942Z,94278.00
2022-11-03T00:34:00.864Z,94277.91
2022-11-03T00:36:30.038Z,94261.75
2022-11-03T00:38:56.951Z,94259.03
2022-11-03T00:41:25.392Z,94255.97
2022-11-03T00:43:52.568Z,94261.38
2022-11-03T00:46:20.763Z,94261.03
2022-11-03T00:48:48.193Z,94257.59
2022-11-03T00:51:26.681Z,94249.75
2022-11-03T00:54:01.244Z,94241.75
2022-11-03T00:56:31.153Z,94241.06
2022-11-03T00:58:59.383Z,94248.31
2022-11-03T01:01:31.709Z,94239.91
2022-11-03T01:04:17.715Z,94235.84
2022-11-03T01:06:50.887Z,94245.41
2022-11-03T01:09:18.263Z,94236.00
2022-11-03T01:12:03.423Z,94235.63
2022-11-03T01:14:39.395Z,94243.91
2022-11-03T01:17:14.189Z,94242.06
2022-11-03T01:19:40.888Z,94246.47
2022-11-03T01:22:10.708Z,94242.56
2022-11-03T01:24:39.159Z,94239.28
2022-11-03T01:27:05.813Z,94237.34
2022-11-03T01:29:32.429Z,94234.72
2022-11-03T01:31:59.131Z,94227.34
2022-11-03T01:34:25.780Z,94223.28
2022-11-03T01:36:52.502Z,94223.16
2022-11-03T01:39:19.812Z,94215.47
2022-11-03T01:41:49.208Z,94214.31
2022-11-03T01:44:15.766Z,94213.84
2022-11-03T01:47:02.617Z,94220.03
2022-11-03T01:49:49.792Z,94210.81
2022-11-03T01:52:23.994Z,94210.19
2022-11-03T01:55:04.502Z,94211.66
2022-11-03T01:57:37.590Z,94225.41
2022-11-03T02:00:05.662Z,94232.25
2022-11-03T02:02:32.364Z,94221.50
2022-11-03T02:05:02.189Z,94216.22
2022-11-03T02:07:51.195Z,94207.84
2022-11-03T02:10:18.094Z,94208.69
2022-11-03T02:12:44.822Z,94197.41
2022-11-03T02:15:14.651Z,94191.72
2022-11-03T02:17:43.917Z,94192.38
2022-11-03T02:20:16.329Z,94181.53
2022-11-03T02:22:54.875Z,94189.56
2022-11-03T02:25:48.226Z,94179.03
2022-11-03T02:28:18.629Z,94188.34
2022-11-03T02:30:55.105Z,94176.22
2022-11-03T02:33:31.769Z,94177.59
2022-11-03T02:36:10.177Z,94171.75
2022-11-03T02:38:45.843Z,94168.78
2022-11-03T02:41:14.648Z,94164.53
2022-11-03T02:43:43.701Z,94161.44
2022-11-03T02:46:13.532Z,94158.06
2022-11-03T02:48:40.219Z,94149.50
2022-11-03T02:51:06.791Z,94149.88
2022-11-03T02:53:44.676Z,94142.09
2022-11-03T02:56:16.873Z,94138.69
2022-11-03T02:59:00.042Z,94139.69
2022-11-03T03:01:47.216Z,94125.50
2022-11-03T03:04:28.682Z,94118.38
2022-11-03T03:07:02.824Z,94114.72
2022-11-03T03:09:35.280Z,94117.16
2022-11-03T03:12:04.240Z,94107.63
2022-11-03T03:14:37.150Z,94107.97
2022-11-03T03:17:23.942Z,94107.34
2022-11-03T03:20:00.802Z,94101.44
2022-11-03T03:22:47.072Z,94102.78
2022-11-03T03:25:18.766Z,94097.84
2022-11-03T03:27:52.923Z,94094.94
2022-11-03T03:30:19.798Z,94093.59
2022-11-03T03:32:48.976Z,94090.97
2022-11-03T03:35:30.797Z,94090.25
2022-11-03T03:38:04.312Z,94087.78
2022-11-03T03:40:35.470Z,94094.38
2022-11-03T03:43:05.895Z,94091.81
2022-11-03T03:45:34.226Z,94085.13
2022-11-03T03:48:01.341Z,94076.19
2022-11-03T03:50:31.621Z,94075.94
2022-11-03T03:53:01.045Z,94071.03
2022-11-03T03:55:40.450Z,94065.25
2022-11-03T03:58:07.996Z,94065.16
2022-11-03T04:00:34.827Z,94064.91
2022-11-03T04:03:01.461Z,94065.56
2022-11-03T04:05:28.074Z,94062.25
2022-11-03T04:07:54.735Z,94061.06
2022-11-03T04:10:22.960Z,94054.44
2022-11-03T04:13:08.810Z,94054.88
2022-11-03T04:15:56.336Z,94049.13
2022-11-03T04:18:42.622Z,94033.66
2022-11-03T04:21:31.319Z,94037.22
2022-11-03T04:24:00.291Z,94022.91
2022-11-03T04:26:27.951Z,94029.75
2022-11-03T04:28:55.679Z,94030.59
2022-11-03T04:31:22.564Z,94026.13
2022-11-03T04:33:49.245Z,94035.00
2022-11-03T04:36:20.118Z,94021.25
2022-11-03T04:38:47.582Z,94011.84
2022-11-03T04:41:23.471Z,94006.09
2022-11-03T04:43:51.766Z,94015.91
2022-11-03T04:46:36.686Z,94006.66
2022-11-03T04:49:10.792Z,94003.47
2022-11-03T04:51:37.436Z,94008.78
2022-11-03T04:54:16.001Z,94003.38
2022-11-03T04:56:42.658Z,94002.88
2022-11-03T04:59:12.823Z,93989.59
2022-11-03T05:01:39.898Z,93993.88
2022-11-03T05:04:15.059Z,93999.47
2022-11-03T05:06:42.631Z,94000.06
2022-11-03T05:09:16.856Z,93983.47
2022-11-03T05:11:46.031Z,93978.63
2022-11-03T05:14:19.980Z,93980.19
2022-11-03T05:16:48.430Z,93983.53
2022-11-03T05:19:41.395Z,93972.44
2022-11-03T05:22:15.691Z,93960.53
2022-11-03T05:24:42.505Z,93968.94
2022-11-03T05:27:19.224Z,93970.31
2022-11-03T05:29:46.117Z,93959.09
2022-11-03T05:32:21.618Z,93964.31
2022-11-03T05:34:51.291Z,93963.50
2022-11-03T05:37:20.704Z,93960.84
2022-11-03T05:39:52.527Z,93954.06
2022-11-03T05:42:22.227Z,93951.56
2022-11-03T05:44:50.963Z,93940.66
2022-11-03T05:47:22.613Z,93950.38
2022-11-03T05:49:52.594Z,93946.53
2022-11-03T05:52:28.983Z,93939.63
2022-11-03T05:54:59.439Z,93940.81
2022-11-03T05:57:29.879Z,93947.44
2022-11-03T05:59:56.962Z,93934.56
2022-11-03T06:02:23.526Z,93936.28
2022-11-03T06:04:50.257Z,93939.19
2022-11-03T06:07:24.822Z,93933.78
2022-11-03T06:09:53.635Z,93932.78
2022-11-03T06:12:22.483Z,93926.28
2022-11-03T06:14:49.447Z,93922.47
2022-11-03T06:17:25.761Z,93922.97
2022-11-03T06:19:58.547Z,93923.41
2022-11-03T06:22:31.318Z,93927.31
2022-11-03T06:25:01.823Z,93914.50
2022-11-03T06:27:30.874Z,93923.13
2022-11-03T06:30:13.014Z,93923.75
2022-11-03T06:32:39.750Z,93916.91
2022-11-03T06:35:12.015Z,93907.88
2022-11-03T06:37:38.856Z,93909.50
2022-11-03T06:40:11.250Z,93904.81
2022-11-03T06:42:41.576Z,93915.91
2022-11-03T06:45:17.129Z,93917.00
2022-11-03T06:47:43.811Z,93907.50
2022-11-03T06:50:33.440Z,93908.22
2022-11-03T06:53:04.014Z,93904.97
2022-11-03T06:55:36.674Z,93904.91
2022-11-03T06:58:13.006Z,93900.50
2022-11-03T07:00:42.799Z,93891.94
2022-11-03T07:03:30.150Z,93887.69
2022-11-03T07:06:12.104Z,93893.94
2022-11-03T07:08:45.631Z,93886.78
2022-11-03T07:11:16.563Z,93884.78
2022-11-03T07:13:43.807Z,93887.78
2022-11-03T07:16:24.475Z,93875.16
2022-11-03T07:18:51.151Z,93879.66
2022-11-03T07:21:35.558Z,93882.44
2022-11-03T07:24:12.344Z,93869.31
2022-11-03T07:26:38.956Z,93873.94
2022-11-03T07:29:07.668Z,93872.00
2022-11-03T07:31:34.266Z,93877.66
2022-11-03T07:34:00.932Z,93874.88
2022-11-03T07:36:31.887Z,93876.38
2022-11-03T07:39:01.405Z,93872.03
2022-11-03T07:41:34.171Z,93869.38
2022-11-03T07:44:02.138Z,93863.75
2022-11-03T07:46:29.364Z,93859.47
2022-11-03T07:48:58.350Z,93844.09
2022-11-03T07:51:33.177Z,93841.50
2022-11-03T07:54:08.590Z,93840.72
2022-11-03T07:57:07.877Z,93851.72
2022-11-03T07:59:41.858Z,93846.19
2022-11-03T08:02:30.421Z,93847.41
2022-11-03T08:04:58.495Z,93842.72
2022-11-03T08:07:25.593Z,93831.78
2022-11-03T08:09:52.315Z,93822.84
2022-11-03T08:12:18.916Z,93823.63
2022-11-03T08:14:45.730Z,93819.00
2022-11-03T08:17:12.428Z,93819.00
2022-11-03T08:19:39.027Z,93819.41
2022-11-03T08:22:05.662Z,93809.28
2022-11-03T08:24:32.388Z,93809.94
2022-11-03T08:26:59.079Z,93809.44
2022-11-03T08:29:27.279Z,93806.63
2022-11-03T08:31:55.135Z,93803.84
2022-11-03T08:34:22.039Z,93802.75
2022-11-03T08:36:48.654Z,93790.38
2022-11-03T08:39:15.266Z,93792.81
2022-11-03T08:41:41.877Z,93795.06
2022-11-03T08:44:08.725Z,93783.56
2022-11-03T08:46:35.371Z,93788.91
2022-11-03T08:49:02.638Z,93793.13
2022-11-03T08:51:29.294Z,93794.28
2022-11-03T08:53:55.914Z,93786.94
2022-11-03T08:56:22.985Z,93792.34
2022-11-03T08:58:50.242Z,93781.25
2022-11-03T09:01:17.075Z,93785.34
2022-11-03T09:03:43.879Z,93772.41
2022-11-03T09:06:10.602Z,93780.94
2022-11-03T09:11:24.002Z,93778.59
2022-11-03T09:13:50.610Z,93774.00
2022-11-03T09:16:17.278Z,93785.09
2022-11-03T09:18:44.126Z,93774.31
2022-11-03T09:21:10.754Z,93777.84
2022-11-03T09:23:37.441Z,93773.63
2022-11-03T09:26:05.779Z,93767.06
2022-11-03T09:28:33.000Z,93767.63
2022-11-03T09:30:59.594Z,93776.78
2022-11-03T09:33:26.210Z,93758.63
2022-11-03T09:35:52.823Z,93761.47
2022-11-03T09:38:19.447Z,93757.91
2022-11-03T09:40:46.234Z,93751.78
2022-11-03T09:43:12.934Z,93758.00
2022-11-03T09:45:39.727Z,93751.72
2022-11-03T09:48:10.620Z,93745.97
2022-11-03T09:50:38.013Z,93742.50
2022-11-03T09:53:05.521Z,93741.63
2022-11-03T09:55:33.740Z,93741.53
2022-11-03T09:58:14.368Z,93740.19
2022-11-03T10:00:41.338Z,93729.50
2022-11-03T10:03:13.367Z,93727.88
2022-11-03T10:05:41.849Z,93736.75
2022-11-03T10:08:28.178Z,93726.53
2022-11-03T10:10:55.624Z,93726.72
2022-11-03T10:13:35.753Z,93719.88
2022-11-03T10:16:05.226Z,93707.66
2022-11-03T10:18:33.894Z,93692.69
2022-11-03T10:21:05.495Z,93699.47
2022-11-03T10:23:32.510Z,93701.97
2022-11-03T10:26:11.008Z,93686.72
2022-11-03T10:28:38.061Z,93689.03
2022-11-03T10:31:11.654Z,93689.31
2022-11-03T10:33:41.753Z,93684.22
2022-11-03T10:36:17.555Z,93687.22
2022-11-03T10:38:45.005Z,93678.97
2022-11-03T10:41:21.618Z,93679.78
2022-11-03T10:44:29.942Z,93676.88
2022-11-03T10:47:00.659Z,93663.34
2022-11-03T10:49:31.934Z,93662.31
2022-11-03T10:52:16.218Z,93656.03
2022-11-03T10:54:42.873Z,93651.50
2022-11-03T10:57:09.589Z,93654.25
2022-11-03T10:59:38.388Z,93660.78
2022-11-03T11:02:20.218Z,93658.72
2022-11-03T11:04:56.574Z,93655.84
2022-11-03T11:07:36.305Z,93659.47
2022-11-03T11:10:18.039Z,93649.00
2022-11-03T11:13:03.287Z,93649.00
2022-11-03T11:15:54.469Z,93638.50
2022-11-03T11:18:30.340Z,93637.59
2022-11-03T11:21:21.086Z,93624.06
2022-11-03T11:23:49.397Z,93624.91
2022-11-03T11:26:25.894Z,93613.75
2022-11-03T11:29:11.187Z,93605.84
2022-11-03T11:31:39.153Z,93599.72
2022-11-03T11:34:08.837Z,93603.50
2022-11-03T11:36:42.635Z,93602.56
2022-11-03T11:39:24.881Z,93597.78
2022-11-03T11:42:13.700Z,93599.25
2022-11-03T11:44:43.474Z,93595.19
2022-11-03T11:47:41.180Z,93592.66
2022-11-03T11:50:09.496Z,93587.06
2022-11-03T11:52:51.776Z,93581.47
2022-11-03T11:55:48.628Z,93580.47
2022-11-03T11:58:23.440Z,93589.78
2022-11-03T12:00:56.422Z,93573.06
2022-11-03T12:03:28.093Z,93566.75
2022-11-03T12:05:54.790Z,93561.44
2022-11-03T12:08:28.652Z,93555.59
2022-11-03T12:11:06.594Z,93552.94
2022-11-03T12:13:51.144Z,93542.16
2022-11-03T12:16:39.073Z,93527.72
2022-11-03T12:19:46.571Z,93517.22
2022-11-03T12:22:26.061Z,93507.38
2022-11-03T12:24:52.787Z,93506.00
2022-11-03T12:27:25.208Z,93509.59
2022-11-03T12:30:05.869Z,93505.38
2022-11-03T12:32:34.926Z,93494.56
2022-11-03T12:35:08.264Z,93491.63
2022-11-03T12:37:35.418Z,93490.91
2022-11-03T12:40:02.104Z,93473.34
2022-11-03T12:42:28.768Z,93466.13
2022-11-03T12:44:55.986Z,93464.16
2022-11-03T12:47:22.699Z,93449.56
2022-11-03T12:49:49.621Z,93442.81
2022-11-03T12:52:16.426Z,93436.31
2022-11-03T12:54:43.098Z,93421.34
2022-11-03T12:57:09.869Z,93425.72
2022-11-03T12:59:36.996Z,93438.69
2022-11-03T13:02:04.435Z,93437.28
2022-11-03T13:04:31.386Z,93427.56
2022-11-03T13:06:58.096Z,93424.47
2022-11-03T13:09:24.706Z,93399.13
2022-11-03T13:12:10.172Z,93394.06
2022-11-03T13:14:36.795Z,93390.19
2022-11-03T13:17:03.862Z,93399.19
2022-11-03T13:19:30.805Z,93393.44
2022-11-03T13:21:57.484Z,93389.66
2022-11-03T13:24:24.101Z,93385.63
2022-11-03T13:26:50.750Z,93383.53
2022-11-03T13:29:17.433Z,93371.94
2022-11-03T13:31:44.061Z,93374.41
2022-11-03T13:34:10.679Z,93357.31
2022-11-03T13:36:37.290Z,93362.44
2022-11-03T13:39:04.103Z,93359.34
2022-11-03T13:41:30.690Z,93347.38
2022-11-03T13:43:57.347Z,93358.00
2022-11-03T13:46:24.010Z,93354.16
2022-11-03T13:51:37.156Z,93346.19
2022-11-03T13:59:37.432Z,93345.97
2022-11-03T14:04:52.472Z,93340.47
2022-11-03T14:07:19.117Z,93333.59
2022-11-03T14:09:45.755Z,93327.06
2022-11-03T14:12:30.806Z,93317.28
2022-11-03T14:14:58.755Z,93310.13
2022-11-03T14:17:25.589Z,93299.28
2022-11-03T14:19:56.517Z,93294.34
2022-11-03T14:22:25.972Z,93284.03
2022-11-03T14:24:52.638Z,93279.28
2022-11-03T14:27:20.318Z,93273.59
2022-11-03T14:29:49.895Z,93262.84
2022-11-03T14:32:17.856Z,93278.09
2022-11-03T14:34:45.404Z,93278.13
2022-11-03T14:37:12.862Z,93271.03
2022-11-03T14:39:40.084Z,93279.63
2022-11-03T14:42:14.921Z,93277.47
2022-11-03T14:44:42.751Z,93293.44
2022-11-03T14:47:11.504Z,93252.53
2022-11-03T14:49:38.229Z,93254.63
2022-11-03T14:52:07.358Z,93272.59
2022-11-03T14:54:35.348Z,93247.13
2022-11-03T14:57:02.831Z,93264.34
2022-11-03T14:59:29.791Z,93237.44
2022-11-03T15:01:57.703Z,93233.78
2022-11-03T15:04:24.635Z,93233.19
2022-11-03T15:06:51.293Z,93232.91
2022-11-03T15:09:18.147Z,93234.09
2022-11-03T15:11:45.577Z,93218.59
2022-11-03T15:14:13.124Z,93208.34
2022-11-03T15:16:41.011Z,93230.91
2022-11-03T15:19:08.037Z,93219.06
2022-11-03T15:21:34.825Z,93228.25
2022-11-03T15:26:48.396Z,93219.06
2022-11-03T15:29:15.054Z,93207.94
2022-11-03T15:31:47.232Z,93210.72
2022-11-03T15:34:14.512Z,93190.13
2022-11-03T15:36:41.212Z,93196.50
2022-11-03T15:39:07.807Z,93171.47
2022-11-03T15:41:34.411Z,93166.69
2022-11-03T15:44:01.064Z,93167.19
2022-11-03T15:46:27.678Z,93153.81
2022-11-03T15:48:56.448Z,93157.72
2022-11-03T15:51:23.271Z,93155.84
2022-11-03T15:53:54.962Z,93125.09
2022-11-03T15:56:25.040Z,93135.94
2022-11-03T15:58:51.737Z,93111.59
2022-11-03T16:01:18.475Z,93106.31
2022-11-03T16:03:45.197Z,93109.66
2022-11-03T16:06:11.883Z,93099.22
2022-11-03T16:08:38.471Z,93088.41
2022-11-03T16:11:05.212Z,93102.31
2022-11-03T16:13:31.833Z,93101.31
2022-11-03T16:15:58.628Z,93106.41
2022-11-03T16:18:25.359Z,93095.25
2022-11-03T16:20:52.053Z,93104.75
2022-11-03T16:23:18.729Z,93102.47
2022-11-03T16:25:45.379Z,93103.44
2022-11-03T16:28:12.487Z,93087.22
2022-11-03T16:30:39.158Z,93093.03
2022-11-03T16:33:06.130Z,93094.56
2022-11-03T16:35:33.095Z,93093.75
2022-11-03T16:37:59.985Z,93092.63
2022-11-03T16:40:27.492Z,93080.09
2022-11-03T16:42:54.096Z,93085.38
2022-11-03T16:45:23.454Z,93091.16
2022-11-03T16:47:50.778Z,93086.13
2022-11-03T16:50:18.780Z,93083.75
2022-11-03T16:52:47.180Z,93081.47
2022-11-03T16:55:15.534Z,93077.91
2022-11-03T16:57:42.795Z,93074.34
2022-11-03T17:00:15.580Z,93072.81
2022-11-03T17:02:42.994Z,93063.28
2022-11-03T17:05:10.870Z,93071.94
2022-11-03T17:07:37.962Z,93074.13
2022-11-03T17:10:06.550Z,93060.22
2022-11-03T17:12:33.503Z,93054.41
2022-11-03T17:15:00.218Z,93064.28
2022-11-03T17:17:26.871Z,93062.19
2022-11-03T17:19:53.490Z,93085.44
2022-11-03T17:22:22.931Z,93105.91
2022-11-03T17:24:49.868Z,93127.06
2022-11-03T17:27:21.859Z,93102.59
2022-11-03T17:29:52.929Z,93088.13
2022-11-03T17:32:34.053Z,93078.31
2022-11-03T17:35:00.794Z,93075.63
2022-11-03T17:37:28.026Z,93070.00
2022-11-03T17:39:56.221Z,93062.03
2022-11-03T17:42:25.071Z,93055.34
2022-11-03T17:44:55.419Z,93036.84
2022-11-03T17:47:23.543Z,93031.25
2022-11-03T17:49:50.575Z,93028.63
2022-11-03T17:52:28.233Z,93034.25
2022-11-03T17:54:57.940Z,93044.19
2022-11-03T17:57:25.653Z,93033.47
2022-11-03T17:59:57.588Z,93048.81
2022-11-03T18:02:27.331Z,93033.97
2022-11-03T18:05:20.418Z,93034.19
2022-11-03T18:07:49.176Z,93029.19
2022-11-03T18:10:15.802Z,93020.38
2022-11-03T18:13:05.007Z,93010.28
2022-11-03T18:15:33.941Z,93029.56
2022-11-03T18:18:02.058Z,93024.94
2022-11-03T18:20:29.949Z,93022.06
2022-11-03T18:23:15.691Z,93018.34
2022-11-03T18:25:42.420Z,93011.28
2022-11-03T18:28:09.384Z,93009.44
2022-11-03T18:30:36.535Z,93003.44
2022-11-03T18:33:03.325Z,92990.84
2022-11-03T18:35:33.265Z,92988.78
2022-11-03T18:38:00.153Z,92978.69
2022-11-03T18:40:34.099Z,92967.63
2022-11-03T18:43:00.713Z,92958.50
2022-11-03T18:45:27.344Z,92943.66
2022-11-03T18:47:54.161Z,92934.91
2022-11-03T18:50:20.955Z,92914.72
2022-11-03T18:52:49.557Z,92908.31
2022-11-03T18:55:17.102Z,92896.94
2022-11-03T18:57:44.603Z,92891.63
2022-11-03T19:00:20.273Z,92877.97
2022-11-03T19:02:47.787Z,92875.16
2022-11-03T19:05:18.704Z,92868.81
2022-11-03T19:07:48.400Z,92860.03
2022-11-03T19:10:19.701Z,92862.09
2022-11-03T19:12:47.022Z,92864.47
2022-11-03T19:15:22.928Z,92869.50
2022-11-03T19:17:52.609Z,92855.41
2022-11-03T19:20:19.389Z,92838.88
2022-11-03T19:22:46.723Z,92843.72
2022-11-03T19:25:15.180Z,92830.22
2022-11-03T19:27:45.830Z,92831.69
2022-11-03T19:30:16.183Z,92824.44
2022-11-03T19:32:48.947Z,92832.53
2022-11-03T19:35:20.843Z,92848.50
2022-11-03T19:37:51.062Z,92837.09
2022-11-03T19:40:19.872Z,92842.34
2022-11-03T19:42:48.690Z,92837.41
2022-11-03T19:45:20.073Z,92859.88
2022-11-03T19:50:47.931Z,92861.84
2022-11-03T19:53:35.002Z,92861.56
2022-11-03T19:56:01.654Z,92878.09
2022-11-03T19:58:29.353Z,92871.31
2022-11-03T20:00:56.896Z,92881.91
2022-11-03T20:03:25.163Z,92880.16
2022-11-03T20:05:54.709Z,92900.75
2022-11-03T20:08:24.640Z,92891.94
2022-11-03T20:10:51.906Z,92890.28
2022-11-03T20:13:24.807Z,92894.91
2022-11-03T20:15:57.281Z,92902.50
2022-11-03T20:18:27.128Z,92906.34
2022-11-03T20:20:54.112Z,92912.22
2022-11-03T20:23:32.868Z,92905.66
2022-11-03T20:26:00.616Z,92903.84
2022-11-03T20:28:29.862Z,92907.22
2022-11-03T20:30:57.419Z,92891.50
2022-11-03T20:33:25.369Z,92883.56
2022-11-03T20:35:54.497Z,92871.16
2022-11-03T20:38:22.807Z,92900.19
2022-11-03T20:40:55.559Z,92889.19
2022-11-03T20:43:39.848Z,92884.81
2022-11-03T20:46:28.179Z,92885.94
2022-11-03T20:48:55.740Z,92879.94
2022-11-03T20:51:25.688Z,92875.06
2022-11-03T20:53:53.055Z,92872.69
2022-11-03T20:56:23.873Z,92895.03
2022-11-03T20:58:50.844Z,92885.00
2022-11-03T21:01:30.686Z,92895.34
2022-11-03T21:04:00.217Z,92890.50
2022-11-03T21:06:29.490Z,92877.78
2022-11-03T21:08:56.817Z,92883.25
2022-11-03T21:11:28.965Z,92875.91
2022-11-03T21:14:08.232Z,92896.44
2022-11-03T21:16:53.549Z,92898.75
2022-11-03T21:19:44.997Z,92911.75
2022-11-03T21:25:17.237Z,92926.94
2022-11-03T21:27:43.888Z,92941.41
2022-11-03T21:30:14.881Z,92960.91
2022-11-03T21:32:41.749Z,92968.69
2022-11-03T21:35:14.458Z,92992.88
2022-11-03T21:37:41.132Z,92997.25
2022-11-03T21:40:08.570Z,92995.81
2022-11-03T21:42:53.804Z,93002.47
2022-11-03T21:45:20.503Z,93014.28
2022-11-03T21:48:12.832Z,93027.63
2022-11-03T21:50:40.395Z,93028.41
2022-11-03T21:53:07.410Z,93038.41
2022-11-03T21:55:34.485Z,93036.75
2022-11-03T21:58:04.501Z,93044.13
2022-11-03T22:00:32.030Z,93043.59
2022-11-03T22:02:59.739Z,93035.66
2022-11-03T22:05:26.568Z,93032.66
2022-11-03T22:07:53.221Z,93026.56
2022-11-03T22:10:23.762Z,93013.84
2022-11-03T22:12:50.396Z,93022.13
2022-11-03T22:15:35.595Z,93031.47
2022-11-03T22:18:03.568Z,93042.34
2022-11-03T22:20:49.000Z,93053.34
2022-11-03T22:23:34.462Z,93054.84
2022-11-03T22:26:19.933Z,93061.06
2022-11-03T22:29:06.501Z,93082.94
2022-11-03T22:31:42.193Z,93087.88
2022-11-03T22:34:27.792Z,93096.06
2022-11-03T22:36:54.428Z,93107.84
2022-11-03T22:39:39.410Z,93087.53
2022-11-03T22:42:24.472Z,93073.94
2022-11-03T22:45:09.748Z,93081.41
2022-11-03T22:47:36.347Z,93068.16
2022-11-03T22:50:02.942Z,93045.88
2022-11-03T22:52:29.547Z,93046.41
2022-11-03T22:54:56.177Z,93077.63
2022-11-03T22:57:23.208Z,93080.03
2022-11-03T22:59:49.833Z,93082.81
2022-11-03T23:02:16.570Z,93083.50
2022-11-03T23:04:43.240Z,93086.59
2022-11-03T23:07:09.917Z,93083.56
2022-11-03T23:09:36.543Z,93092.19
2022-11-03T23:12:03.324Z,93098.94
2022-11-03T23:14:49.920Z,93101.25
2022-11-03T23:17:16.540Z,93104.47
2022-11-03T23:20:01.656Z,93094.38
2022-11-03T23:22:28.330Z,93095.97
2022-11-03T23:25:01.074Z,93094.50
2022-11-03T23:27:28.232Z,93085.91
2022-11-03T23:29:54.857Z,93072.72
2022-11-03T23:32:21.479Z,93083.44
2022-11-03T23:34:48.148Z,93080.72
2022-11-03T23:37:14.773Z,93083.16
2022-11-03T23:39:41.435Z,93085.16
2022-11-03T23:42:08.169Z,93087.91
2022-11-03T23:44:53.347Z,93076.22
2022-11-03T23:47:38.528Z,93072.44
2022-11-03T23:50:05.632Z,93060.34
2022-11-03T23:52:32.220Z,93057.00
2022-11-03T23:54:58.852Z,93071.44
2022-11-03T23:57:44.027Z,93078.06
